sensor_id;sensor_type;location;lat;lon;timestamp;noise_LAeq;noise_LA_min;noise_LA_max;noise_LA01;noise_LA95
47109;Laerm;32856;51.422;6.794;2023-03-01T00:01:36;53.28;48.18;57.67;;
47109;Laerm;32856;51.422;6.794;2023-03-01T00:04:03;53.76;47.30;60.23;;
47109;Laerm;32856;51.422;6.794;2023-03-01T00:06:31;51.46;46.32;57.35;;
47109;Laerm;32856;51.422;6.794;2023-03-01T00:08:58;53.00;47.22;57.64;;
47109;Laerm;32856;51.422;6.794;2023-03-01T00:11:26;52.02;47.34;60.10;;
47109;Laerm;32856;51.422;6.794;2023-03-01T00:13:56;52.86;48.08;58.64;;
47109;Laerm;32856;51.422;6.794;2023-03-01T00:16:24;52.95;48.13;61.20;;
47109;Laerm;32856;51.422;6.794;2023-03-01T00:18:53;53.35;49.04;58.65;;
47109;Laerm;32856;51.422;6.794;2023-03-01T00:21:20;51.25;45.80;55.53;;
47109;Laerm;32856;51.422;6.794;2023-03-01T00:23:48;51.99;45.66;57.46;;
47109;Laerm;32856;51.422;6.794;2023-03-01T00:26:18;56.32;45.30;75.65;;
47109;Laerm;32856;51.422;6.794;2023-03-01T00:28:46;50.67;45.91;54.84;;
47109;Laerm;32856;51.422;6.794;2023-03-01T00:31:15;52.54;47.18;57.67;;
47109;Laerm;32856;51.422;6.794;2023-03-01T00:33:43;50.87;46.66;56.54;;
47109;Laerm;32856;51.422;6.794;2023-03-01T00:36:12;56.18;45.89;73.92;;
47109;Laerm;32856;51.422;6.794;2023-03-01T00:38:40;54.54;45.75;71.03;;
47109;Laerm;32856;51.422;6.794;2023-03-01T00:41:09;53.45;47.06;59.30;;
47109;Laerm;32856;51.422;6.794;2023-03-01T00:43:36;50.83;44.83;57.49;;
47109;Laerm;32856;51.422;6.794;2023-03-01T00:46:04;51.50;45.20;59.42;;
47109;Laerm;32856;51.422;6.794;2023-03-01T00:48:33;53.57;45.20;59.48;;
47109;Laerm;32856;51.422;6.794;2023-03-01T00:51:04;53.22;49.20;57.98;;
47109;Laerm;32856;51.422;6.794;2023-03-01T00:53:32;48.68;43.86;54.45;;
47109;Laerm;32856;51.422;6.794;2023-03-01T00:56:00;56.03;46.25;75.44;;
47109;Laerm;32856;51.422;6.794;2023-03-01T00:58:27;52.59;45.01;58.07;;
47109;Laerm;32856;51.422;6.794;2023-03-01T01:00:54;53.80;45.37;71.42;;
47109;Laerm;32856;51.422;6.794;2023-03-01T01:03:22;53.04;47.54;59.12;;
47109;Laerm;32856;51.422;6.794;2023-03-01T01:05:52;50.57;45.60;54.20;;
47109;Laerm;32856;51.422;6.794;2023-03-01T01:08:20;50.99;45.36;57.02;;
47109;Laerm;32856;51.422;6.794;2023-03-01T01:10:47;49.67;44.47;53.74;;
47109;Laerm;32856;51.422;6.794;2023-03-01T01:13:14;53.00;45.37;57.93;;
47109;Laerm;32856;51.422;6.794;2023-03-01T01:15:41;49.02;44.43;53.95;;
47109;Laerm;32856;51.422;6.794;2023-03-01T01:18:09;52.99;46.45;58.46;;
47109;Laerm;32856;51.422;6.794;2023-03-01T01:20:36;52.34;46.62;60.26;;
47109;Laerm;32856;51.422;6.794;2023-03-01T01:23:06;55.40;49.80;60.89;;
47109;Laerm;32856;51.422;6.794;2023-03-01T01:25:34;53.95;46.93;58.96;;
47109;Laerm;32856;51.422;6.794;2023-03-01T01:28:02;50.86;46.66;54.97;;
47109;Laerm;32856;51.422;6.794;2023-03-01T01:30:29;56.02;48.55;74.36;;
47109;Laerm;32856;51.422;6.794;2023-03-01T01:32:56;55.41;47.67;73.00;;
47109;Laerm;32856;51.422;6.794;2023-03-01T01:35:24;51.56;46.33;63.20;;
47109;Laerm;32856;51.422;6.794;2023-03-01T01:37:51;52.87;48.55;58.22;;
47109;Laerm;32856;51.422;6.794;2023-03-01T01:40:20;54.17;46.69;71.88;;
47109;Laerm;32856;51.422;6.794;2023-03-01T01:42:47;51.49;44.54;63.29;;
47109;Laerm;32856;51.422;6.794;2023-03-01T01:45:24;49.39;43.54;54.68;;
47109;Laerm;32856;51.422;6.794;2023-03-01T01:47:52;56.22;46.36;76.24;;
47109;Laerm;32856;51.422;6.794;2023-03-01T01:50:20;54.54;46.84;60.28;;
47109;Laerm;32856;51.422;6.794;2023-03-01T01:52:48;50.11;44.94;57.46;;
47109;Laerm;32856;51.422;6.794;2023-03-01T01:55:18;51.96;46.20;57.99;;
47109;Laerm;32856;51.422;6.794;2023-03-01T01:57:49;50.92;46.25;58.06;;
47109;Laerm;32856;51.422;6.794;2023-03-01T02:00:19;53.44;45.27;59.08;;
47109;Laerm;32856;51.422;6.794;2023-03-01T02:02:47;51.90;47.81;56.27;;
47109;Laerm;32856;51.422;6.794;2023-03-01T02:05:19;50.70;45.36;57.39;;
47109;Laerm;32856;51.422;6.794;2023-03-01T02:07:48;54.58;45.20;71.67;;
47109;Laerm;32856;51.422;6.794;2023-03-01T02:10:15;51.66;45.94;57.30;;
47109;Laerm;32856;51.422;6.794;2023-03-01T02:12:43;53.44;49.07;58.69;;
47109;Laerm;32856;51.422;6.794;2023-03-01T02:15:12;55.19;48.90;63.81;;
47109;Laerm;32856;51.422;6.794;2023-03-01T02:17:39;52.96;47.04;67.65;;
47109;Laerm;32856;51.422;6.794;2023-03-01T02:20:10;50.99;46.82;55.52;;
47109;Laerm;32856;51.422;6.794;2023-03-01T02:22:43;50.79;44.90;55.63;;
47109;Laerm;32856;51.422;6.794;2023-03-01T02:27:47;52.22;47.54;55.35;;
47109;Laerm;32856;51.422;6.794;2023-03-01T02:30:17;52.39;47.24;56.21;;
47109;Laerm;32856;51.422;6.794;2023-03-01T02:32:45;52.27;46.95;56.45;;
47109;Laerm;32856;51.422;6.794;2023-03-01T02:35:13;51.87;48.48;57.41;;
47109;Laerm;32856;51.422;6.794;2023-03-01T02:37:41;55.51;48.16;70.65;;
47109;Laerm;32856;51.422;6.794;2023-03-01T02:40:11;53.03;48.05;58.41;;
47109;Laerm;32856;51.422;6.794;2023-03-01T02:42:40;53.41;49.73;58.32;;
47109;Laerm;32856;51.422;6.794;2023-03-01T02:45:10;53.82;48.15;58.55;;
47109;Laerm;32856;51.422;6.794;2023-03-01T02:47:39;56.24;50.65;73.02;;
47109;Laerm;32856;51.422;6.794;2023-03-01T02:50:11;52.78;48.63;59.61;;
47109;Laerm;32856;51.422;6.794;2023-03-01T02:52:43;52.21;48.45;57.60;;
47109;Laerm;32856;51.422;6.794;2023-03-01T02:55:15;53.76;48.26;58.07;;
47109;Laerm;32856;51.422;6.794;2023-03-01T02:57:44;55.73;47.93;74.14;;
47109;Laerm;32856;51.422;6.794;2023-03-01T03:00:17;52.54;47.79;57.44;;
47109;Laerm;32856;51.422;6.794;2023-03-01T03:02:48;53.42;47.68;57.96;;
47109;Laerm;32856;51.422;6.794;2023-03-01T03:05:16;53.49;49.87;57.97;;
47109;Laerm;32856;51.422;6.794;2023-03-01T03:07:44;56.17;48.26;62.77;;
47109;Laerm;32856;51.422;6.794;2023-03-01T03:10:13;58.03;48.25;75.23;;
47109;Laerm;32856;51.422;6.794;2023-03-01T03:12:42;56.92;49.55;72.67;;
47109;Laerm;32856;51.422;6.794;2023-03-01T03:15:09;60.25;48.20;78.32;;
47109;Laerm;32856;51.422;6.794;2023-03-01T03:17:39;56.28;50.28;72.31;;
47109;Laerm;32856;51.422;6.794;2023-03-01T03:20:10;56.74;49.24;76.70;;
47109;Laerm;32856;51.422;6.794;2023-03-01T03:22:38;57.13;51.84;74.08;;
47109;Laerm;32856;51.422;6.794;2023-03-01T03:25:06;55.11;49.07;66.08;;
47109;Laerm;32856;51.422;6.794;2023-03-01T03:27:36;55.69;49.00;71.00;;
47109;Laerm;32856;51.422;6.794;2023-03-01T03:30:04;61.70;50.91;79.79;;
47109;Laerm;32856;51.422;6.794;2023-03-01T03:32:35;58.65;49.14;78.65;;
47109;Laerm;32856;51.422;6.794;2023-03-01T03:35:02;53.43;48.61;61.52;;
47109;Laerm;32856;51.422;6.794;2023-03-01T03:37:36;57.95;50.70;76.01;;
47109;Laerm;32856;51.422;6.794;2023-03-01T03:40:21;57.62;50.60;75.11;;
47109;Laerm;32856;51.422;6.794;2023-03-01T03:42:49;56.09;50.21;69.98;;
47109;Laerm;32856;51.422;6.794;2023-03-01T03:45:16;58.97;51.57;76.82;;
47109;Laerm;32856;51.422;6.794;2023-03-01T03:47:44;60.81;50.40;82.28;;
47109;Laerm;32856;51.422;6.794;2023-03-01T03:50:12;54.76;49.91;58.31;;
47109;Laerm;32856;51.422;6.794;2023-03-01T03:52:41;55.93;48.55;72.34;;
47109;Laerm;32856;51.422;6.794;2023-03-01T03:55:09;57.80;50.96;73.99;;
47109;Laerm;32856;51.422;6.794;2023-03-01T03:57:37;58.88;50.64;76.73;;
47109;Laerm;32856;51.422;6.794;2023-03-01T04:00:07;56.10;50.31;69.62;;
47109;Laerm;32856;51.422;6.794;2023-03-01T04:02:39;56.65;51.84;70.43;;
47109;Laerm;32856;51.422;6.794;2023-03-01T04:05:07;57.94;51.43;74.98;;
47109;Laerm;32856;51.422;6.794;2023-03-01T04:07:35;59.96;52.05;81.16;;
47109;Laerm;32856;51.422;6.794;2023-03-01T04:10:04;59.74;52.06;75.18;;
47109;Laerm;32856;51.422;6.794;2023-03-01T04:12:32;57.39;51.43;73.76;;
47109;Laerm;32856;51.422;6.794;2023-03-01T04:15:00;61.91;52.12;77.09;;
47109;Laerm;32856;51.422;6.794;2023-03-01T04:17:29;65.23;52.73;89.38;;
47109;Laerm;32856;51.422;6.794;2023-03-01T04:19:56;60.69;53.13;76.60;;
47109;Laerm;32856;51.422;6.794;2023-03-01T04:22:24;59.49;52.98;75.91;;
47109;Laerm;32856;51.422;6.794;2023-03-01T04:24:55;61.53;53.69;75.55;;
47109;Laerm;32856;51.422;6.794;2023-03-01T04:27:24;60.07;53.08;75.26;;
47109;Laerm;32856;51.422;6.794;2023-03-01T04:29:51;60.09;54.31;75.76;;
47109;Laerm;32856;51.422;6.794;2023-03-01T04:32:19;62.06;52.75;76.58;;
47109;Laerm;32856;51.422;6.794;2023-03-01T04:34:46;62.03;53.17;75.95;;
47109;Laerm;32856;51.422;6.794;2023-03-01T04:37:13;61.10;52.37;75.28;;
47109;Laerm;32856;51.422;6.794;2023-03-01T04:39:42;56.61;53.23;63.11;;
47109;Laerm;32856;51.422;6.794;2023-03-01T04:42:11;61.48;53.81;75.62;;
47109;Laerm;32856;51.422;6.794;2023-03-01T04:44:40;64.07;54.85;76.77;;
47109;Laerm;32856;51.422;6.794;2023-03-01T04:47:07;59.82;53.48;75.27;;
47109;Laerm;32856;51.422;6.794;2023-03-01T04:49:35;63.38;54.90;76.11;;
47109;Laerm;32856;51.422;6.794;2023-03-01T04:52:02;63.51;54.20;82.09;;
47109;Laerm;32856;51.422;6.794;2023-03-01T04:54:30;60.12;53.80;76.31;;
47109;Laerm;32856;51.422;6.794;2023-03-01T04:56:58;61.65;53.52;77.30;;
47109;Laerm;32856;51.422;6.794;2023-03-01T04:59:25;60.72;53.55;75.15;;
47109;Laerm;32856;51.422;6.794;2023-03-01T05:01:54;61.56;52.92;76.68;;
47109;Laerm;32856;51.422;6.794;2023-03-01T05:04:22;62.37;53.51;77.57;;
47109;Laerm;32856;51.422;6.794;2023-03-01T05:06:50;62.02;53.95;79.79;;
47109;Laerm;32856;51.422;6.794;2023-03-01T05:09:19;62.91;53.37;76.60;;
47109;Laerm;32856;51.422;6.794;2023-03-01T05:11:46;61.02;54.07;76.57;;
47109;Laerm;32856;51.422;6.794;2023-03-01T05:14:14;63.51;52.47;80.77;;
47109;Laerm;32856;51.422;6.794;2023-03-01T05:16:41;62.95;53.07;76.20;;
47109;Laerm;32856;51.422;6.794;2023-03-01T05:19:10;62.00;53.86;75.08;;
47109;Laerm;32856;51.422;6.794;2023-03-01T05:21:41;61.96;53.41;76.34;;
47109;Laerm;32856;51.422;6.794;2023-03-01T05:24:24;64.06;53.96;78.52;;
47109;Laerm;32856;51.422;6.794;2023-03-01T05:26:52;60.48;53.21;74.28;;
47109;Laerm;32856;51.422;6.794;2023-03-01T05:29:20;61.19;52.93;75.01;;
47109;Laerm;32856;51.422;6.794;2023-03-01T05:31:51;62.96;53.49;76.23;;
47109;Laerm;32856;51.422;6.794;2023-03-01T05:34:23;62.48;53.45;75.50;;
47109;Laerm;32856;51.422;6.794;2023-03-01T05:36:51;61.54;53.75;73.44;;
47109;Laerm;32856;51.422;6.794;2023-03-01T05:39:19;65.51;55.17;78.91;;
47109;Laerm;32856;51.422;6.794;2023-03-01T05:41:48;64.48;54.00;76.09;;
47109;Laerm;32856;51.422;6.794;2023-03-01T05:44:15;63.55;53.72;75.51;;
47109;Laerm;32856;51.422;6.794;2023-03-01T05:46:43;66.63;53.10;86.97;;
47109;Laerm;32856;51.422;6.794;2023-03-01T05:49:10;60.70;53.96;75.08;;
47109;Laerm;32856;51.422;6.794;2023-03-01T05:51:40;65.21;53.44;78.18;;
47109;Laerm;32856;51.422;6.794;2023-03-01T05:54:08;66.57;54.89;82.50;;
47109;Laerm;32856;51.422;6.794;2023-03-01T05:56:36;62.51;54.35;76.24;;
47109;Laerm;32856;51.422;6.794;2023-03-01T05:59:04;64.04;54.67;75.64;;
47109;Laerm;32856;51.422;6.794;2023-03-01T06:01:32;67.11;55.22;83.53;;
47109;Laerm;32856;51.422;6.794;2023-03-01T06:03:59;63.04;54.07;74.85;;
47109;Laerm;32856;51.422;6.794;2023-03-01T06:06:26;62.42;53.64;74.62;;
47109;Laerm;32856;51.422;6.794;2023-03-01T06:08:55;65.04;54.62;76.74;;
47109;Laerm;32856;51.422;6.794;2023-03-01T06:11:23;64.87;54.71;77.04;;
47109;Laerm;32856;51.422;6.794;2023-03-01T06:13:50;65.64;54.33;77.55;;
47109;Laerm;32856;51.422;6.794;2023-03-01T06:16:17;63.69;53.46;77.17;;
47109;Laerm;32856;51.422;6.794;2023-03-01T06:18:45;64.85;54.59;78.54;;
47109;Laerm;32856;51.422;6.794;2023-03-01T06:21:12;64.86;54.92;79.19;;
47109;Laerm;32856;51.422;6.794;2023-03-01T06:23:39;66.27;54.64;81.52;;
47109;Laerm;32856;51.422;6.794;2023-03-01T06:26:08;66.03;55.15;78.41;;
47109;Laerm;32856;51.422;6.794;2023-03-01T06:28:36;66.10;55.80;75.89;;
47109;Laerm;32856;51.422;6.794;2023-03-01T06:31:03;65.69;55.54;81.65;;
47109;Laerm;32856;51.422;6.794;2023-03-01T06:33:34;65.73;54.32;78.80;;
47109;Laerm;32856;51.422;6.794;2023-03-01T06:36:02;65.94;54.27;76.60;;
47109;Laerm;32856;51.422;6.794;2023-03-01T06:38:29;64.80;53.87;77.20;;
47109;Laerm;32856;51.422;6.794;2023-03-01T06:40:57;67.02;54.36;80.29;;
47109;Laerm;32856;51.422;6.794;2023-03-01T06:43:25;65.69;54.89;76.01;;
47109;Laerm;32856;51.422;6.794;2023-03-01T06:45:53;67.53;55.49;85.79;;
47109;Laerm;32856;51.422;6.794;2023-03-01T06:48:20;64.93;54.68;76.84;;
47109;Laerm;32856;51.422;6.794;2023-03-01T06:50:47;65.55;55.24;77.52;;
47109;Laerm;32856;51.422;6.794;2023-03-01T06:53:15;64.37;55.14;76.77;;
47109;Laerm;32856;51.422;6.794;2023-03-01T06:55:42;63.98;53.92;74.60;;
47109;Laerm;32856;51.422;6.794;2023-03-01T06:58:09;67.81;55.74;81.78;;
47109;Laerm;32856;51.422;6.794;2023-03-01T07:00:38;63.98;54.09;77.97;;
47109;Laerm;32856;51.422;6.794;2023-03-01T07:03:07;64.80;53.59;78.81;;
47109;Laerm;32856;51.422;6.794;2023-03-01T07:05:35;65.96;53.96;77.69;;
47109;Laerm;32856;51.422;6.794;2023-03-01T07:08:03;67.03;54.70;78.01;;
47109;Laerm;32856;51.422;6.794;2023-03-01T07:10:30;66.26;53.51;78.11;;
47109;Laerm;32856;51.422;6.794;2023-03-01T07:12:58;66.55;54.37;81.16;;
47109;Laerm;32856;51.422;6.794;2023-03-01T07:15:25;65.28;54.13;76.54;;
47109;Laerm;32856;51.422;6.794;2023-03-01T07:17:55;64.47;53.86;77.64;;
47109;Laerm;32856;51.422;6.794;2023-03-01T07:20:22;65.42;53.75;79.44;;
47109;Laerm;32856;51.422;6.794;2023-03-01T07:22:51;65.93;56.31;76.79;;
47109;Laerm;32856;51.422;6.794;2023-03-01T07:25:19;67.91;54.97;88.10;;
47109;Laerm;32856;51.422;6.794;2023-03-01T07:27:48;64.53;53.57;74.88;;
47109;Laerm;32856;51.422;6.794;2023-03-01T07:30:16;63.33;52.44;78.15;;
47109;Laerm;32856;51.422;6.794;2023-03-01T07:32:43;63.07;52.34;73.96;;
47109;Laerm;32856;51.422;6.794;2023-03-01T07:35:13;64.97;52.26;83.00;;
47109;Laerm;32856;51.422;6.794;2023-03-01T07:37:41;65.99;53.03;76.16;;
47109;Laerm;32856;51.422;6.794;2023-03-01T07:40:09;65.11;53.23;76.45;;
47109;Laerm;32856;51.422;6.794;2023-03-01T07:42:37;65.87;53.57;79.04;;
47109;Laerm;32856;51.422;6.794;2023-03-01T07:45:05;64.93;52.78;80.13;;
47109;Laerm;32856;51.422;6.794;2023-03-01T07:47:32;66.18;52.52;81.00;;
47109;Laerm;32856;51.422;6.794;2023-03-01T07:50:00;64.76;54.02;79.35;;
47109;Laerm;32856;51.422;6.794;2023-03-01T07:52:29;64.69;54.46;77.33;;
47109;Laerm;32856;51.422;6.794;2023-03-01T07:54:57;65.81;54.09;81.64;;
47109;Laerm;32856;51.422;6.794;2023-03-01T07:57:24;66.30;53.69;81.53;;
47109;Laerm;32856;51.422;6.794;2023-03-01T07:59:52;64.17;53.84;75.42;;
47109;Laerm;32856;51.422;6.794;2023-03-01T08:02:19;64.12;53.82;76.31;;
47109;Laerm;32856;51.422;6.794;2023-03-01T08:04:47;64.36;53.03;76.75;;
47109;Laerm;32856;51.422;6.794;2023-03-01T08:07:14;64.96;53.02;78.75;;
47109;Laerm;32856;51.422;6.794;2023-03-01T08:09:43;64.04;53.18;77.77;;
47109;Laerm;32856;51.422;6.794;2023-03-01T08:12:10;67.95;53.40;82.30;;
47109;Laerm;32856;51.422;6.794;2023-03-01T08:14:37;64.79;53.39;79.07;;
47109;Laerm;32856;51.422;6.794;2023-03-01T08:17:05;66.06;52.94;81.17;;
47109;Laerm;32856;51.422;6.794;2023-03-01T08:19:32;65.71;52.95;88.68;;
47109;Laerm;32856;51.422;6.794;2023-03-01T08:22:00;64.18;52.81;74.97;;
47109;Laerm;32856;51.422;6.794;2023-03-01T08:24:28;65.03;53.54;80.62;;
47109;Laerm;32856;51.422;6.794;2023-03-01T08:26:56;59.37;52.45;72.83;;
47109;Laerm;32856;51.422;6.794;2023-03-01T08:29:24;64.16;53.83;80.63;;
47109;Laerm;32856;51.422;6.794;2023-03-01T08:31:51;62.90;52.90;76.23;;
47109;Laerm;32856;51.422;6.794;2023-03-01T08:34:19;63.81;53.88;75.39;;
47109;Laerm;32856;51.422;6.794;2023-03-01T08:36:46;63.26;53.72;76.10;;
47109;Laerm;32856;51.422;6.794;2023-03-01T08:39:14;67.27;52.13;80.85;;
47109;Laerm;32856;51.422;6.794;2023-03-01T08:41:42;63.89;53.15;78.74;;
47109;Laerm;32856;51.422;6.794;2023-03-01T08:44:13;64.12;52.29;77.84;;
47109;Laerm;32856;51.422;6.794;2023-03-01T08:46:42;63.69;51.89;76.63;;
47109;Laerm;32856;51.422;6.794;2023-03-01T08:49:12;65.02;52.33;77.31;;
47109;Laerm;32856;51.422;6.794;2023-03-01T08:51:39;65.48;54.91;77.04;;
47109;Laerm;32856;51.422;6.794;2023-03-01T08:54:09;63.34;52.56;77.76;;
47109;Laerm;32856;51.422;6.794;2023-03-01T08:56:37;66.36;53.19;86.45;;
47109;Laerm;32856;51.422;6.794;2023-03-01T08:59:04;64.61;54.45;77.93;;
47109;Laerm;32856;51.422;6.794;2023-03-01T09:01:33;65.11;53.59;84.50;;
47109;Laerm;32856;51.422;6.794;2023-03-01T09:04:00;67.28;54.12;83.29;;
47109;Laerm;32856;51.422;6.794;2023-03-01T09:06:29;63.37;53.26;77.32;;
47109;Laerm;32856;51.422;6.794;2023-03-01T09:08:57;62.85;54.05;73.88;;
47109;Laerm;32856;51.422;6.794;2023-03-01T09:11:24;64.10;53.41;80.51;;
47109;Laerm;32856;51.422;6.794;2023-03-01T09:13:52;65.00;52.56;79.70;;
47109;Laerm;32856;51.422;6.794;2023-03-01T09:16:19;64.29;52.98;78.13;;
47109;Laerm;32856;51.422;6.794;2023-03-01T09:18:49;64.52;54.06;76.27;;
47109;Laerm;32856;51.422;6.794;2023-03-01T09:21:18;64.21;53.45;77.13;;
47109;Laerm;32856;51.422;6.794;2023-03-01T09:24:04;63.86;52.21;75.46;;
47109;Laerm;32856;51.422;6.794;2023-03-01T09:26:31;63.96;52.79;80.58;;
47109;Laerm;32856;51.422;6.794;2023-03-01T09:28:59;64.75;53.47;78.50;;
47109;Laerm;32856;51.422;6.794;2023-03-01T09:31:26;64.00;53.37;78.13;;
47109;Laerm;32856;51.422;6.794;2023-03-01T09:33:55;65.95;54.34;77.33;;
47109;Laerm;32856;51.422;6.794;2023-03-01T09:36:23;65.02;52.79;79.76;;
47109;Laerm;32856;51.422;6.794;2023-03-01T09:38:52;64.00;53.14;79.97;;
47109;Laerm;32856;51.422;6.794;2023-03-01T09:41:26;65.94;52.83;79.88;;
47109;Laerm;32856;51.422;6.794;2023-03-01T09:43:59;63.07;54.01;77.65;;
47109;Laerm;32856;51.422;6.794;2023-03-01T09:46:29;65.11;54.04;76.46;;
47109;Laerm;32856;51.422;6.794;2023-03-01T09:49:05;62.93;51.78;77.27;;
47109;Laerm;32856;51.422;6.794;2023-03-01T09:51:35;60.22;51.84;74.95;;
47109;Laerm;32856;51.422;6.794;2023-03-01T09:54:03;67.60;53.63;81.87;;
47109;Laerm;32856;51.422;6.794;2023-03-01T09:56:32;61.77;53.05;75.91;;
47109;Laerm;32856;51.422;6.794;2023-03-01T09:59:03;64.23;52.23;75.79;;
47109;Laerm;32856;51.422;6.794;2023-03-01T10:01:40;65.88;52.48;85.53;;
47109;Laerm;32856;51.422;6.794;2023-03-01T10:04:20;60.76;52.70;70.89;;
47109;Laerm;32856;51.422;6.794;2023-03-01T10:06:51;66.90;53.10;82.65;;
47109;Laerm;32856;51.422;6.794;2023-03-01T10:09:21;64.86;52.22;77.20;;
47109;Laerm;32856;51.422;6.794;2023-03-01T10:11:50;64.08;52.60;76.70;;
47109;Laerm;32856;51.422;6.794;2023-03-01T10:14:28;65.72;53.69;79.41;;
47109;Laerm;32856;51.422;6.794;2023-03-01T10:16:57;64.15;52.89;81.50;;
47109;Laerm;32856;51.422;6.794;2023-03-01T10:19:31;66.08;53.15;77.66;;
47109;Laerm;32856;51.422;6.794;2023-03-01T10:22:00;64.50;51.93;77.04;;
47109;Laerm;32856;51.422;6.794;2023-03-01T10:24:31;65.88;53.01;80.24;;
47109;Laerm;32856;51.422;6.794;2023-03-01T10:27:00;62.90;52.46;76.46;;
47109;Laerm;32856;51.422;6.794;2023-03-01T10:29:34;64.71;52.21;75.60;;
47109;Laerm;32856;51.422;6.794;2023-03-01T10:32:03;66.02;53.08;83.70;;
47109;Laerm;32856;51.422;6.794;2023-03-01T10:34:34;64.29;53.81;77.02;;
47109;Laerm;32856;51.422;6.794;2023-03-01T10:37:08;62.90;51.50;79.72;;
47109;Laerm;32856;51.422;6.794;2023-03-01T10:39:36;66.07;51.17;78.51;;
47109;Laerm;32856;51.422;6.794;2023-03-01T10:42:05;62.81;52.04;78.66;;
47109;Laerm;32856;51.422;6.794;2023-03-01T10:44:40;65.83;53.29;81.27;;
47109;Laerm;32856;51.422;6.794;2023-03-01T10:47:12;63.86;52.87;78.74;;
47109;Laerm;32856;51.422;6.794;2023-03-01T10:49:42;62.53;53.03;75.63;;
47109;Laerm;32856;51.422;6.794;2023-03-01T10:52:19;64.98;52.56;78.07;;
47109;Laerm;32856;51.422;6.794;2023-03-01T10:54:50;66.34;53.57;80.65;;
47109;Laerm;32856;51.422;6.794;2023-03-01T10:57:24;66.87;54.79;81.19;;
47109;Laerm;32856;51.422;6.794;2023-03-01T11:00:00;64.10;54.08;81.03;;
47109;Laerm;32856;51.422;6.794;2023-03-01T11:02:29;64.11;51.46;76.82;;
47109;Laerm;32856;51.422;6.794;2023-03-01T11:05:07;66.29;53.12;77.61;;
47109;Laerm;32856;51.422;6.794;2023-03-01T11:07:46;66.24;53.03;77.56;;
47109;Laerm;32856;51.422;6.794;2023-03-01T11:10:16;66.19;52.63;78.90;;
47109;Laerm;32856;51.422;6.794;2023-03-01T11:12:44;64.00;51.08;78.96;;
47109;Laerm;32856;51.422;6.794;2023-03-01T11:15:19;65.86;51.12;78.00;;
47109;Laerm;32856;51.422;6.794;2023-03-01T11:17:47;63.86;52.26;80.52;;
47109;Laerm;32856;51.422;6.794;2023-03-01T11:20:26;67.05;52.42;80.01;;
47109;Laerm;32856;51.422;6.794;2023-03-01T11:22:56;64.60;51.40;78.03;;
47109;Laerm;32856;51.422;6.794;2023-03-01T11:25:26;66.05;52.60;82.09;;
47109;Laerm;32856;51.422;6.794;2023-03-01T11:27:54;67.38;52.51;81.23;;
47109;Laerm;32856;51.422;6.794;2023-03-01T11:30:24;65.99;53.29;79.23;;
47109;Laerm;32856;51.422;6.794;2023-03-01T11:33:00;63.41;50.24;78.07;;
47109;Laerm;32856;51.422;6.794;2023-03-01T11:35:31;64.91;52.50;77.04;;
47109;Laerm;32856;51.422;6.794;2023-03-01T11:38:03;64.54;52.41;77.77;;
47109;Laerm;32856;51.422;6.794;2023-03-01T11:40:33;63.99;50.66;75.89;;
47109;Laerm;32856;51.422;6.794;2023-03-01T11:43:06;64.67;51.42;76.97;;
47109;Laerm;32856;51.422;6.794;2023-03-01T11:45:42;66.01;53.44;76.45;;
47109;Laerm;32856;51.422;6.794;2023-03-01T11:48:17;67.39;54.57;82.34;;
47109;Laerm;32856;51.422;6.794;2023-03-01T11:50:52;65.31;51.51;80.98;;
47109;Laerm;32856;51.422;6.794;2023-03-01T11:53:26;62.32;52.28;78.29;;
47109;Laerm;32856;51.422;6.794;2023-03-01T11:55:58;62.11;52.11;75.79;;
47109;Laerm;32856;51.422;6.794;2023-03-01T12:01:25;63.29;52.87;76.82;;
47109;Laerm;32856;51.422;6.794;2023-03-01T12:04:08;65.55;51.55;81.27;;
47109;Laerm;32856;51.422;6.794;2023-03-01T12:06:53;64.81;52.88;77.93;;
47109;Laerm;32856;51.422;6.794;2023-03-01T12:09:31;64.04;53.09;75.97;;
47109;Laerm;32856;51.422;6.794;2023-03-01T12:12:11;64.98;53.89;77.20;;
47109;Laerm;32856;51.422;6.794;2023-03-01T12:14:48;64.95;54.81;80.15;;
47109;Laerm;32856;51.422;6.794;2023-03-01T12:17:28;65.22;52.53;77.54;;
47109;Laerm;32856;51.422;6.794;2023-03-01T12:20:02;62.48;52.57;77.09;;
47109;Laerm;32856;51.422;6.794;2023-03-01T12:22:40;64.07;53.95;76.72;;
47109;Laerm;32856;51.422;6.794;2023-03-01T12:25:22;66.02;53.16;79.37;;
47109;Laerm;32856;51.422;6.794;2023-03-01T12:28:02;64.11;51.79;74.75;;
47109;Laerm;32856;51.422;6.794;2023-03-01T12:30:35;64.19;53.75;78.74;;
47109;Laerm;32856;51.422;6.794;2023-03-01T12:33:12;63.89;52.10;77.74;;
47109;Laerm;32856;51.422;6.794;2023-03-01T12:35:49;62.91;53.82;76.62;;
47109;Laerm;32856;51.422;6.794;2023-03-01T12:38:24;66.32;51.83;82.86;;
47109;Laerm;32856;51.422;6.794;2023-03-01T12:41:11;63.24;54.53;77.83;;
47109;Laerm;32856;51.422;6.794;2023-03-01T12:43:44;63.55;53.17;77.22;;
47109;Laerm;32856;51.422;6.794;2023-03-01T12:46:18;65.41;52.45;82.32;;
47109;Laerm;32856;51.422;6.794;2023-03-01T12:48:50;65.75;52.22;81.15;;
47109;Laerm;32856;51.422;6.794;2023-03-01T12:51:23;64.29;50.98;76.74;;
47109;Laerm;32856;51.422;6.794;2023-03-01T12:53:52;62.70;52.17;77.66;;
47109;Laerm;32856;51.422;6.794;2023-03-01T12:56:21;63.25;52.01;81.17;;
47109;Laerm;32856;51.422;6.794;2023-03-01T12:58:51;63.49;52.78;73.80;;
47109;Laerm;32856;51.422;6.794;2023-03-01T13:01:28;65.23;52.38;79.50;;
47109;Laerm;32856;51.422;6.794;2023-03-01T13:07:04;64.67;51.20;79.00;;
47109;Laerm;32856;51.422;6.794;2023-03-01T13:09:39;64.55;55.36;74.04;;
47109;Laerm;32856;51.422;6.794;2023-03-01T13:15:00;63.33;52.50;76.49;;
47109;Laerm;32856;51.422;6.794;2023-03-01T13:17:32;64.51;54.19;77.08;;
47109;Laerm;32856;51.422;6.794;2023-03-01T13:20:00;63.85;54.06;72.87;;
47109;Laerm;32856;51.422;6.794;2023-03-01T13:22:29;64.96;54.36;78.15;;
47109;Laerm;32856;51.422;6.794;2023-03-01T13:25:02;64.88;51.38;80.37;;
47109;Laerm;32856;51.422;6.794;2023-03-01T13:27:38;64.02;51.81;74.29;;
47109;Laerm;32856;51.422;6.794;2023-03-01T13:30:11;64.33;54.75;73.53;;
47109;Laerm;32856;51.422;6.794;2023-03-01T13:32:53;62.91;54.34;75.17;;
47109;Laerm;32856;51.422;6.794;2023-03-01T13:35:41;63.49;53.71;80.63;;
47109;Laerm;32856;51.422;6.794;2023-03-01T13:40:59;62.85;52.60;73.46;;
47109;Laerm;32856;51.422;6.794;2023-03-01T13:43:30;61.27;53.37;71.51;;
47109;Laerm;32856;51.422;6.794;2023-03-01T13:45:58;63.11;52.29;75.24;;
47109;Laerm;32856;51.422;6.794;2023-03-01T13:48:27;65.40;51.46;76.53;;
47109;Laerm;32856;51.422;6.794;2023-03-01T13:50:56;65.09;53.03;76.89;;
47109;Laerm;32856;51.422;6.794;2023-03-01T13:53:26;63.18;52.82;77.35;;
47109;Laerm;32856;51.422;6.794;2023-03-01T13:55:57;62.63;52.23;74.03;;
47109;Laerm;32856;51.422;6.794;2023-03-01T13:58:27;64.48;50.97;74.94;;
47109;Laerm;32856;51.422;6.794;2023-03-01T14:00:56;65.99;53.40;74.99;;
47109;Laerm;32856;51.422;6.794;2023-03-01T14:03:24;63.95;51.90;75.43;;
47109;Laerm;32856;51.422;6.794;2023-03-01T14:06:02;66.13;51.12;75.35;;
47109;Laerm;32856;51.422;6.794;2023-03-01T14:08:41;63.63;52.08;75.71;;
47109;Laerm;32856;51.422;6.794;2023-03-01T14:13:58;64.78;50.02;75.00;;
47109;Laerm;32856;51.422;6.794;2023-03-01T14:16:33;65.25;51.69;82.08;;